sensor_id;sensor_type;location;lat;lon;timestamp;pressure;altitude;pressure_sealevel;temperature;humidity
39491;BME280;25175;50.140;18.990;2023-03-03T00:01:22;98776.50;;;0.43;59.01
39491;BME280;25175;50.140;18.990;2023-03-03T00:04:29;98747.44;;;0.32;58.86
39491;BME280;25175;50.140;18.990;2023-03-03T00:07:37;98777.72;;;0.39;58.93
39491;BME280;25175;50.140;18.990;2023-03-03T00:10:43;98765.63;;;0.30;59.11
39491;BME280;25175;50.140;18.990;2023-03-03T00:14:20;98751.91;;;0.11;59.35
39491;BME280;25175;50.140;18.990;2023-03-03T00:17:33;98770.69;;;0.13;59.52
39491;BME280;25175;50.140;18.990;2023-03-03T00:20:39;98789.66;;;0.02;59.95
39491;BME280;25175;50.140;18.990;2023-03-03T00:23:48;98767.69;;;-0.02;60.28
39491;BME280;25175;50.140;18.990;2023-03-03T00:26:55;98770.81;;;-0.08;60.24
39491;BME280;25175;50.140;18.990;2023-03-03T00:30:17;98791.94;;;-0.14;60.35
39491;BME280;25175;50.140;18.990;2023-03-03T00:33:30;98776.47;;;-0.14;60.57
39491;BME280;25175;50.140;18.990;2023-03-03T00:36:41;98761.16;;;-0.15;60.48
39491;BME280;25175;50.140;18.990;2023-03-03T00:39:49;98766.97;;;-0.13;60.45
39491;BME280;25175;50.140;18.990;2023-03-03T00:42:58;98748.94;;;-0.04;59.81
39491;BME280;25175;50.140;18.990;2023-03-03T00:46:12;98750.97;;;0.02;59.03
39491;BME280;25175;50.140;18.990;2023-03-03T00:49:25;98753.69;;;0.20;58.86
39491;BME280;25175;50.140;18.990;2023-03-03T00:52:34;98758.19;;;0.27;58.55
39491;BME280;25175;50.140;18.990;2023-03-03T00:55:46;98754.66;;;0.28;58.20
39491;BME280;25175;50.140;18.990;2023-03-03T01:02:15;98751.13;;;0.10;59.01
39491;BME280;25175;50.140;18.990;2023-03-03T01:05:20;98743.22;;;0.02;59.00
39491;BME280;25175;50.140;18.990;2023-03-03T01:08:26;98751.50;;;-0.04;59.29
39491;BME280;25175;50.140;18.990;2023-03-03T01:11:41;98746.22;;;-0.12;59.54
39491;BME280;25175;50.140;18.990;2023-03-03T01:14:55;98760.75;;;-0.20;59.69
39491;BME280;25175;50.140;18.990;2023-03-03T01:18:01;98738.59;;;-0.32;59.99
39491;BME280;25175;50.140;18.990;2023-03-03T01:21:08;98739.78;;;-0.46;60.19
39491;BME280;25175;50.140;18.990;2023-03-03T01:24:14;98791.28;;;-0.55;60.40
39491;BME280;25175;50.140;18.990;2023-03-03T01:27:23;98732.84;;;-0.64;60.56
39491;BME280;25175;50.140;18.990;2023-03-03T01:30:29;98724.94;;;-0.72;60.81
39491;BME280;25175;50.140;18.990;2023-03-03T01:33:35;98727.78;;;-0.75;60.74
39491;BME280;25175;50.140;18.990;2023-03-03T01:36:40;98726.44;;;-0.70;60.76
39491;BME280;25175;50.140;18.990;2023-03-03T01:39:50;98723.75;;;-0.59;60.37
39491;BME280;25175;50.140;18.990;2023-03-03T01:42:59;98727.72;;;-0.45;59.79
39491;BME280;25175;50.140;18.990;2023-03-03T01:46:31;98721.22;;;-0.30;58.90
39491;BME280;25175;50.140;18.990;2023-03-03T01:49:49;98704.25;;;-0.33;58.37
39491;BME280;25175;50.140;18.990;2023-03-03T01:53:11;98727.63;;;-0.15;58.36
39491;BME280;25175;50.140;18.990;2023-03-03T01:56:24;98714.19;;;-0.09;57.94
39491;BME280;25175;50.140;18.990;2023-03-03T01:59:36;98702.25;;;-0.10;57.49
39491;BME280;25175;50.140;18.990;2023-03-03T02:02:48;98698.59;;;-0.08;57.33
39491;BME280;25175;50.140;18.990;2023-03-03T02:05:59;98710.28;;;0.06;56.89
39491;BME280;25175;50.140;18.990;2023-03-03T02:09:18;98715.00;;;0.01;57.17
39491;BME280;25175;50.140;18.990;2023-03-03T02:12:35;98715.00;;;0.01;57.00
39491;BME280;25175;50.140;18.990;2023-03-03T02:15:57;98714.84;;;0.02;56.79
39491;BME280;25175;50.140;18.990;2023-03-03T02:19:15;98713.09;;;0.03;56.70
39491;BME280;25175;50.140;18.990;2023-03-03T02:22:32;98702.50;;;-0.23;57.16
39491;BME280;25175;50.140;18.990;2023-03-03T02:26:08;98711.34;;;-0.16;57.37
39491;BME280;25175;50.140;18.990;2023-03-03T02:29:31;98715.66;;;-0.35;57.42
39491;BME280;25175;50.140;18.990;2023-03-03T02:32:40;98728.00;;;-0.29;57.53
39491;BME280;25175;50.140;18.990;2023-03-03T02:35:48;98712.41;;;-0.37;57.74
39491;BME280;25175;50.140;18.990;2023-03-03T02:39:04;98707.38;;;-0.48;57.49
39491;BME280;25175;50.140;18.990;2023-03-03T02:42:20;98720.41;;;-0.40;57.30
39491;BME280;25175;50.140;18.990;2023-03-03T02:45:41;98715.53;;;-0.43;57.46
39491;BME280;25175;50.140;18.990;2023-03-03T02:48:47;98716.31;;;-0.52;57.75
39491;BME280;25175;50.140;18.990;2023-03-03T02:51:56;98705.69;;;-0.68;57.67
39491;BME280;25175;50.140;18.990;2023-03-03T02:55:03;98720.59;;;-0.72;58.12
39491;BME280;25175;50.140;18.990;2023-03-03T02:58:13;98735.72;;;-0.88;58.55
39491;BME280;25175;50.140;18.990;2023-03-03T03:01:28;98739.47;;;-1.01;58.88
39491;BME280;25175;50.140;18.990;2023-03-03T03:04:48;98727.50;;;-1.12;59.04
39491;BME280;25175;50.140;18.990;2023-03-03T03:07:57;98731.72;;;-1.11;59.16
39491;BME280;25175;50.140;18.990;2023-03-03T03:11:06;98716.91;;;-1.18;58.64
39491;BME280;25175;50.140;18.990;2023-03-03T03:14:15;98727.66;;;-1.04;58.66
39491;BME280;25175;50.140;18.990;2023-03-03T03:17:22;98720.34;;;-1.08;58.97
39491;BME280;25175;50.140;18.990;2023-03-03T03:20:28;98725.59;;;-1.10;59.40
39491;BME280;25175;50.140;18.990;2023-03-03T03:23:35;98641.41;;;-1.58;59.41
39491;BME280;25175;50.140;18.990;2023-03-03T03:26:40;98709.59;;;-1.13;59.90
39491;BME280;25175;50.140;18.990;2023-03-03T03:29:48;98710.81;;;-1.17;60.59
39491;BME280;25175;50.140;18.990;2023-03-03T03:32:54;98697.69;;;-1.14;60.62
39491;BME280;25175;50.140;18.990;2023-03-03T03:36:00;98710.72;;;-1.06;59.96
39491;BME280;25175;50.140;18.990;2023-03-03T03:39:07;98708.56;;;-1.01;59.76
39491;BME280;25175;50.140;18.990;2023-03-03T03:42:17;98697.88;;;-0.97;59.58
39491;BME280;25175;50.140;18.990;2023-03-03T03:45:25;98708.06;;;-0.86;58.94
39491;BME280;25175;50.140;18.990;2023-03-03T03:48:31;98716.09;;;-0.79;58.63
39491;BME280;25175;50.140;18.990;2023-03-03T03:51:42;98713.81;;;-0.73;58.11
39491;BME280;25175;50.140;18.990;2023-03-03T03:54:52;98709.22;;;-0.69;57.98
39491;BME280;25175;50.140;18.990;2023-03-03T03:57:58;98710.72;;;-0.67;57.56
39491;BME280;25175;50.140;18.990;2023-03-03T04:01:07;98703.53;;;-0.63;57.56
39491;BME280;25175;50.140;18.990;2023-03-03T04:04:19;98709.53;;;-0.63;57.35
39491;BME280;25175;50.140;18.990;2023-03-03T04:07:27;98711.03;;;-0.60;57.47
39491;BME280;25175;50.140;18.990;2023-03-03T04:10:34;98714.50;;;-0.61;57.14
39491;BME280;25175;50.140;18.990;2023-03-03T04:13:42;98712.75;;;-0.70;57.64
39491;BME280;25175;50.140;18.990;2023-03-03T04:16:50;98709.56;;;-0.83;57.95
39491;BME280;25175;50.140;18.990;2023-03-03T04:20:21;98715.09;;;-0.97;59.02
39491;BME280;25175;50.140;18.990;2023-03-03T04:23:28;98713.13;;;-1.14;59.86
39491;BME280;25175;50.140;18.990;2023-03-03T04:26:34;98730.09;;;-1.32;60.37
39491;BME280;25175;50.140;18.990;2023-03-03T04:29:41;98738.94;;;-1.46;60.78
39491;BME280;25175;50.140;18.990;2023-03-03T04:32:50;98725.09;;;-1.54;60.89
39491;BME280;25175;50.140;18.990;2023-03-03T04:35:58;98717.03;;;-1.70;60.98
39491;BME280;25175;50.140;18.990;2023-03-03T04:39:24;98723.72;;;-1.58;61.03
39491;BME280;25175;50.140;18.990;2023-03-03T04:42:35;98731.28;;;-1.57;61.11
39491;BME280;25175;50.140;18.990;2023-03-03T04:45:45;98726.88;;;-1.55;61.41
39491;BME280;25175;50.140;18.990;2023-03-03T04:48:54;98717.13;;;-1.51;61.15
39491;BME280;25175;50.140;18.990;2023-03-03T04:52:02;98714.38;;;-1.39;60.21
39491;BME280;25175;50.140;18.990;2023-03-03T04:55:08;98716.31;;;-1.31;59.85
